sensor_id;sensor_type;location;lat;lon;timestamp;P1;durP1;ratioP1;P2;durP2;ratioP2
12385;SDS011;6257;57.634;18.310;2023-07-13T00:02:21;13.93;;;11.07;;
12385;SDS011;6257;57.634;18.310;2023-07-13T00:04:48;12.77;;;10.87;;
12385;SDS011;6257;57.634;18.310;2023-07-13T00:07:16;12.53;;;11.10;;
12385;SDS011;6257;57.634;18.310;2023-07-13T00:09:46;12.27;;;11.03;;
12385;SDS011;6257;57.634;18.310;2023-07-13T00:12:24;11.83;;;10.63;;
12385;SDS011;6257;57.634;18.310;2023-07-13T00:14:54;11.57;;;10.17;;
12385;SDS011;6257;57.634;18.310;2023-07-13T00:17:22;10.53;;;8.40;;
12385;SDS011;6257;57.634;18.310;2023-07-13T00:19:49;8.00;;;7.27;;
12385;SDS011;6257;57.634;18.310;2023-07-13T00:22:18;7.43;;;6.73;;
12385;SDS011;6257;57.634;18.310;2023-07-13T00:24:46;6.17;;;5.57;;
12385;SDS011;6257;57.634;18.310;2023-07-13T00:27:14;8.40;;;5.80;;
12385;SDS011;6257;57.634;18.310;2023-07-13T00:29:43;6.53;;;5.47;;
12385;SDS011;6257;57.634;18.310;2023-07-13T00:32:10;6.30;;;5.47;;
12385;SDS011;6257;57.634;18.310;2023-07-13T00:34:37;7.07;;;5.27;;
12385;SDS011;6257;57.634;18.310;2023-07-13T00:37:05;5.40;;;4.53;;
12385;SDS011;6257;57.634;18.310;2023-07-13T00:39:34;6.43;;;4.47;;
12385;SDS011;6257;57.634;18.310;2023-07-13T00:42:02;4.47;;;3.90;;
12385;SDS011;6257;57.634;18.310;2023-07-13T00:44:29;5.27;;;4.00;;
12385;SDS011;6257;57.634;18.310;2023-07-13T00:46:56;4.53;;;3.57;;
12385;SDS011;6257;57.634;18.310;2023-07-13T00:49:25;8.33;;;3.80;;
12385;SDS011;6257;57.634;18.310;2023-07-13T00:51:55;4.37;;;3.70;;
12385;SDS011;6257;57.634;18.310;2023-07-13T00:54:32;4.20;;;3.27;;
12385;SDS011;6257;57.634;18.310;2023-07-13T00:57:06;7.03;;;3.83;;
12385;SDS011;6257;57.634;18.310;2023-07-13T00:59:40;5.13;;;3.80;;
12385;SDS011;6257;57.634;18.310;2023-07-13T01:02:14;5.37;;;3.63;;
12385;SDS011;6257;57.634;18.310;2023-07-13T01:04:41;4.00;;;3.37;;
12385;SDS011;6257;57.634;18.310;2023-07-13T01:07:11;6.07;;;3.33;;
12385;SDS011;6257;57.634;18.310;2023-07-13T01:09:41;7.03;;;3.83;;
12385;SDS011;6257;57.634;18.310;2023-07-13T01:12:10;8.53;;;3.90;;
12385;SDS011;6257;57.634;18.310;2023-07-13T01:14:38;5.27;;;3.70;;
12385;SDS011;6257;57.634;18.310;2023-07-13T01:17:05;5.30;;;3.73;;
12385;SDS011;6257;57.634;18.310;2023-07-13T01:19:36;4.80;;;3.60;;
12385;SDS011;6257;57.634;18.310;2023-07-13T01:22:07;7.37;;;4.20;;
12385;SDS011;6257;57.634;18.310;2023-07-13T01:24:43;6.80;;;3.83;;
12385;SDS011;6257;57.634;18.310;2023-07-13T01:27:15;8.50;;;3.97;;
12385;SDS011;6257;57.634;18.310;2023-07-13T01:29:44;7.37;;;3.77;;
12385;SDS011;6257;57.634;18.310;2023-07-13T01:32:15;6.47;;;4.17;;
12385;SDS011;6257;57.634;18.310;2023-07-13T01:34:50;6.30;;;3.37;;
12385;SDS011;6257;57.634;18.310;2023-07-13T01:37:22;7.70;;;3.83;;
12385;SDS011;6257;57.634;18.310;2023-07-13T01:39:52;6.47;;;4.13;;
12385;SDS011;6257;57.634;18.310;2023-07-13T01:42:21;5.33;;;3.90;;
12385;SDS011;6257;57.634;18.310;2023-07-13T01:44:48;6.87;;;3.97;;
12385;SDS011;6257;57.634;18.310;2023-07-13T01:47:15;9.23;;;4.60;;
12385;SDS011;6257;57.634;18.310;2023-07-13T01:49:45;6.17;;;4.10;;
12385;SDS011;6257;57.634;18.310;2023-07-13T01:52:30;6.53;;;3.80;;
12385;SDS011;6257;57.634;18.310;2023-07-13T01:55:00;7.83;;;4.17;;
12385;SDS011;6257;57.634;18.310;2023-07-13T01:57:31;5.83;;;4.20;;
12385;SDS011;6257;57.634;18.310;2023-07-13T02:00:08;6.53;;;4.77;;
12385;SDS011;6257;57.634;18.310;2023-07-13T02:03:08;6.47;;;4.00;;
12385;SDS011;6257;57.634;18.310;2023-07-13T02:05:43;5.63;;;3.90;;
12385;SDS011;6257;57.634;18.310;2023-07-13T02:08:11;7.83;;;3.70;;
12385;SDS011;6257;57.634;18.310;2023-07-13T02:10:38;5.77;;;3.80;;
12385;SDS011;6257;57.634;18.310;2023-07-13T02:13:06;5.20;;;4.13;;
12385;SDS011;6257;57.634;18.310;2023-07-13T02:15:33;5.27;;;3.60;;
12385;SDS011;6257;57.634;18.310;2023-07-13T02:18:00;5.93;;;3.53;;
12385;SDS011;6257;57.634;18.310;2023-07-13T02:20:28;4.30;;;3.70;;
12385;SDS011;6257;57.634;18.310;2023-07-13T02:22:55;5.60;;;3.57;;
12385;SDS011;6257;57.634;18.310;2023-07-13T02:25:24;5.63;;;3.60;;
12385;SDS011;6257;57.634;18.310;2023-07-13T02:27:52;5.17;;;3.40;;
12385;SDS011;6257;57.634;18.310;2023-07-13T02:30:19;6.50;;;3.60;;
12385;SDS011;6257;57.634;18.310;2023-07-13T02:32:49;7.10;;;3.77;;
12385;SDS011;6257;57.634;18.310;2023-07-13T02:35:17;5.27;;;3.23;;
12385;SDS011;6257;57.634;18.310;2023-07-13T02:37:44;5.77;;;4.00;;
12385;SDS011;6257;57.634;18.310;2023-07-13T02:40:12;4.50;;;3.43;;
12385;SDS011;6257;57.634;18.310;2023-07-13T02:42:40;5.17;;;3.90;;
12385;SDS011;6257;57.634;18.310;2023-07-13T02:45:08;4.60;;;3.70;;
12385;SDS011;6257;57.634;18.310;2023-07-13T02:47:38;5.53;;;4.00;;
12385;SDS011;6257;57.634;18.310;2023-07-13T02:50:14;5.67;;;3.40;;
12385;SDS011;6257;57.634;18.310;2023-07-13T02:53:12;4.67;;;3.80;;
12385;SDS011;6257;57.634;18.310;2023-07-13T02:55:33;6.83;;;4.03;;
12385;SDS011;6257;57.634;18.310;2023-07-13T02:58:11;4.37;;;3.83;;
12385;SDS011;6257;57.634;18.310;2023-07-13T03:00:50;5.10;;;3.73;;
12385;SDS011;6257;57.634;18.310;2023-07-13T03:06:25;4.87;;;3.50;;
12385;SDS011;6257;57.634;18.310;2023-07-13T03:08:55;7.37;;;3.70;;
12385;SDS011;6257;57.634;18.310;2023-07-13T03:11:23;5.70;;;4.10;;
12385;SDS011;6257;57.634;18.310;2023-07-13T03:13:51;6.33;;;4.30;;
12385;SDS011;6257;57.634;18.310;2023-07-13T03:16:19;7.67;;;4.50;;
12385;SDS011;6257;57.634;18.310;2023-07-13T03:18:47;6.83;;;4.17;;
12385;SDS011;6257;57.634;18.310;2023-07-13T03:21:14;6.83;;;4.00;;
12385;SDS011;6257;57.634;18.310;2023-07-13T03:23:42;5.53;;;4.03;;
12385;SDS011;6257;57.634;18.310;2023-07-13T03:26:10;7.23;;;3.97;;
12385;SDS011;6257;57.634;18.310;2023-07-13T03:28:39;7.57;;;4.13;;
12385;SDS011;6257;57.634;18.310;2023-07-13T03:31:08;5.33;;;3.70;;
12385;SDS011;6257;57.634;18.310;2023-07-13T03:33:37;6.57;;;4.07;;
12385;SDS011;6257;57.634;18.310;2023-07-13T03:36:05;8.63;;;4.40;;
12385;SDS011;6257;57.634;18.310;2023-07-13T03:38:33;5.83;;;3.90;;
12385;SDS011;6257;57.634;18.310;2023-07-13T03:41:00;6.00;;;3.97;;
12385;SDS011;6257;57.634;18.310;2023-07-13T03:43:28;6.47;;;3.73;;
12385;SDS011;6257;57.634;18.310;2023-07-13T03:45:55;5.13;;;3.57;;
12385;SDS011;6257;57.634;18.310;2023-07-13T03:55:00;6.70;;;3.90;;
12385;SDS011;6257;57.634;18.310;2023-07-13T03:57:45;6.60;;;3.70;;
12385;SDS011;6257;57.634;18.310;2023-07-13T04:00:34;5.00;;;3.53;;
12385;SDS011;6257;57.634;18.310;2023-07-13T04:06:26;6.60;;;3.30;;
12385;SDS011;6257;57.634;18.310;2023-07-13T04:09:11;5.30;;;3.70;;
12385;SDS011;6257;57.634;18.310;2023-07-13T04:11:38;5.00;;;3.60;;
12385;SDS011;6257;57.634;18.310;2023-07-13T04:14:06;4.20;;;3.07;;
12385;SDS011;6257;57.634;18.310;2023-07-13T04:16:33;4.97;;;3.50;;
12385;SDS011;6257;57.634;18.310;2023-07-13T04:19:00;6.10;;;3.57;;
12385;SDS011;6257;57.634;18.310;2023-07-13T04:21:27;6.30;;;3.63;;
12385;SDS011;6257;57.634;18.310;2023-07-13T04:23:56;4.67;;;3.57;;
12385;SDS011;6257;57.634;18.310;2023-07-13T04:26:43;9.80;;;3.90;;
12385;SDS011;6257;57.634;18.310;2023-07-13T04:35:24;7.37;;;3.77;;
12385;SDS011;6257;57.634;18.310;2023-07-13T04:38:09;6.43;;;4.20;;
12385;SDS011;6257;57.634;18.310;2023-07-13T04:41:03;7.07;;;4.03;;
12385;SDS011;6257;57.634;18.310;2023-07-13T04:46:24;5.87;;;3.63;;
12385;SDS011;6257;57.634;18.310;2023-07-13T04:49:08;7.40;;;4.00;;
12385;SDS011;6257;57.634;18.310;2023-07-13T04:51:50;4.40;;;3.80;;
12385;SDS011;6257;57.634;18.310;2023-07-13T04:54:22;9.83;;;3.93;;
12385;SDS011;6257;57.634;18.310;2023-07-13T04:56:59;6.20;;;3.83;;
12385;SDS011;6257;57.634;18.310;2023-07-13T04:59:47;5.83;;;3.73;;
12385;SDS011;6257;57.634;18.310;2023-07-13T05:02:15;7.37;;;4.20;;
12385;SDS011;6257;57.634;18.310;2023-07-13T05:04:51;10.03;;;4.30;;
12385;SDS011;6257;57.634;18.310;2023-07-13T05:07:18;7.83;;;3.83;;
12385;SDS011;6257;57.634;18.310;2023-07-13T05:09:45;6.73;;;4.47;;
12385;SDS011;6257;57.634;18.310;2023-07-13T05:12:13;5.57;;;3.47;;
12385;SDS011;6257;57.634;18.310;2023-07-13T05:14:41;6.97;;;4.07;;
12385;SDS011;6257;57.634;18.310;2023-07-13T05:17:09;5.90;;;4.10;;
12385;SDS011;6257;57.634;18.310;2023-07-13T05:19:36;6.90;;;4.20;;
12385;SDS011;6257;57.634;18.310;2023-07-13T05:22:03;6.10;;;4.00;;
12385;SDS011;6257;57.634;18.310;2023-07-13T05:24:30;7.53;;;4.17;;
12385;SDS011;6257;57.634;18.310;2023-07-13T05:26:58;6.03;;;3.67;;
12385;SDS011;6257;57.634;18.310;2023-07-13T05:29:26;4.60;;;3.70;;
12385;SDS011;6257;57.634;18.310;2023-07-13T05:31:54;5.53;;;4.10;;
12385;SDS011;6257;57.634;18.310;2023-07-13T05:34:22;6.20;;;4.10;;
12385;SDS011;6257;57.634;18.310;2023-07-13T05:36:49;7.83;;;3.87;;
12385;SDS011;6257;57.634;18.310;2023-07-13T05:39:17;5.63;;;3.93;;
12385;SDS011;6257;57.634;18.310;2023-07-13T05:41:44;4.20;;;3.30;;
12385;SDS011;6257;57.634;18.310;2023-07-13T05:44:11;5.43;;;3.40;;
12385;SDS011;6257;57.634;18.310;2023-07-13T05:46:38;4.23;;;3.50;;
12385;SDS011;6257;57.634;18.310;2023-07-13T05:49:07;6.67;;;3.73;;
12385;SDS011;6257;57.634;18.310;2023-07-13T05:51:37;4.03;;;3.60;;
12385;SDS011;6257;57.634;18.310;2023-07-13T05:54:35;5.73;;;3.67;;
12385;SDS011;6257;57.634;18.310;2023-07-13T05:57:40;5.47;;;3.63;;
12385;SDS011;6257;57.634;18.310;2023-07-13T06:00:34;4.90;;;3.37;;
12385;SDS011;6257;57.634;18.310;2023-07-13T06:03:01;4.17;;;3.27;;
12385;SDS011;6257;57.634;18.310;2023-07-13T06:05:30;5.73;;;3.70;;
12385;SDS011;6257;57.634;18.310;2023-07-13T06:07:58;5.43;;;3.00;;
12385;SDS011;6257;57.634;18.310;2023-07-13T06:10:26;6.87;;;3.53;;
12385;SDS011;6257;57.634;18.310;2023-07-13T06:12:53;4.23;;;3.60;;
12385;SDS011;6257;57.634;18.310;2023-07-13T06:15:20;4.37;;;3.20;;
12385;SDS011;6257;57.634;18.310;2023-07-13T06:17:47;4.93;;;3.50;;
12385;SDS011;6257;57.634;18.310;2023-07-13T06:20:14;7.40;;;3.30;;
12385;SDS011;6257;57.634;18.310;2023-07-13T06:22:44;5.03;;;3.47;;
12385;SDS011;6257;57.634;18.310;2023-07-13T06:25:11;5.80;;;3.00;;
12385;SDS011;6257;57.634;18.310;2023-07-13T06:27:38;5.93;;;3.70;;
12385;SDS011;6257;57.634;18.310;2023-07-13T06:30:06;4.03;;;3.00;;
12385;SDS011;6257;57.634;18.310;2023-07-13T06:32:33;5.47;;;3.47;;
12385;SDS011;6257;57.634;18.310;2023-07-13T06:35:00;6.77;;;3.43;;
12385;SDS011;6257;57.634;18.310;2023-07-13T06:37:27;5.33;;;3.50;;
12385;SDS011;6257;57.634;18.310;2023-07-13T06:39:56;8.57;;;3.33;;
12385;SDS011;6257;57.634;18.310;2023-07-13T06:42:23;3.67;;;3.03;;
12385;SDS011;6257;57.634;18.310;2023-07-13T06:44:51;5.73;;;3.20;;
12385;SDS011;6257;57.634;18.310;2023-07-13T06:47:18;5.77;;;3.20;;
12385;SDS011;6257;57.634;18.310;2023-07-13T06:49:45;5.70;;;3.67;;
12385;SDS011;6257;57.634;18.310;2023-07-13T06:52:12;6.03;;;3.50;;
12385;SDS011;6257;57.634;18.310;2023-07-13T06:54:39;4.63;;;3.40;;
12385;SDS011;6257;57.634;18.310;2023-07-13T06:57:08;3.47;;;3.03;;
12385;SDS011;6257;57.634;18.310;2023-07-13T06:59:35;3.37;;;3.07;;
12385;SDS011;6257;57.634;18.310;2023-07-13T07:02:02;4.87;;;2.97;;
12385;SDS011;6257;57.634;18.310;2023-07-13T07:04:30;3.90;;;3.10;;
12385;SDS011;6257;57.634;18.310;2023-07-13T07:06:57;4.97;;;3.20;;
12385;SDS011;6257;57.634;18.310;2023-07-13T07:09:25;3.83;;;3.10;;
12385;SDS011;6257;57.634;18.310;2023-07-13T07:11:52;5.33;;;3.23;;
12385;SDS011;6257;57.634;18.310;2023-07-13T07:14:21;3.90;;;3.23;;
12385;SDS011;6257;57.634;18.310;2023-07-13T07:16:49;6.13;;;3.23;;
12385;SDS011;6257;57.634;18.310;2023-07-13T07:19:16;4.93;;;3.50;;
12385;SDS011;6257;57.634;18.310;2023-07-13T07:21:43;6.33;;;3.30;;
12385;SDS011;6257;57.634;18.310;2023-07-13T07:24:10;4.90;;;2.97;;
12385;SDS011;6257;57.634;18.310;2023-07-13T07:30:16;5.67;;;3.10;;
12385;SDS011;6257;57.634;18.310;2023-07-13T07:32:43;5.47;;;2.80;;
12385;SDS011;6257;57.634;18.310;2023-07-13T07:38:22;5.10;;;2.90;;
12385;SDS011;6257;57.634;18.310;2023-07-13T07:43:45;4.10;;;2.50;;
12385;SDS011;6257;57.634;18.310;2023-07-13T07:46:59;3.77;;;2.37;;
12385;SDS011;6257;57.634;18.310;2023-07-13T07:49:27;5.57;;;2.50;;
12385;SDS011;6257;57.634;18.310;2023-07-13T07:51:54;5.53;;;2.23;;
12385;SDS011;6257;57.634;18.310;2023-07-13T07:54:21;3.43;;;2.40;;
12385;SDS011;6257;57.634;18.310;2023-07-13T07:56:48;4.67;;;2.40;;
12385;SDS011;6257;57.634;18.310;2023-07-13T07:59:15;3.57;;;2.20;;
12385;SDS011;6257;57.634;18.310;2023-07-13T08:01:42;3.80;;;2.33;;
12385;SDS011;6257;57.634;18.310;2023-07-13T08:04:12;2.83;;;1.93;;
12385;SDS011;6257;57.634;18.310;2023-07-13T08:06:40;3.23;;;1.87;;
12385;SDS011;6257;57.634;18.310;2023-07-13T08:09:07;4.13;;;2.13;;
12385;SDS011;6257;57.634;18.310;2023-07-13T08:11:34;4.00;;;1.90;;
12385;SDS011;6257;57.634;18.310;2023-07-13T08:14:01;5.00;;;2.63;;
12385;SDS011;6257;57.634;18.310;2023-07-13T08:16:28;5.43;;;1.93;;
12385;SDS011;6257;57.634;18.310;2023-07-13T08:18:57;2.60;;;2.00;;
12385;SDS011;6257;57.634;18.310;2023-07-13T08:21:26;3.37;;;2.20;;
12385;SDS011;6257;57.634;18.310;2023-07-13T08:23:54;2.70;;;2.00;;
12385;SDS011;6257;57.634;18.310;2023-07-13T08:26:22;5.13;;;2.07;;
12385;SDS011;6257;57.634;18.310;2023-07-13T08:28:49;4.83;;;1.80;;
12385;SDS011;6257;57.634;18.310;2023-07-13T08:31:16;2.57;;;1.83;;
12385;SDS011;6257;57.634;18.310;2023-07-13T08:33:43;3.77;;;1.80;;
12385;SDS011;6257;57.634;18.310;2023-07-13T08:36:10;4.90;;;1.90;;
12385;SDS011;6257;57.634;18.310;2023-07-13T08:38:39;2.83;;;1.77;;
12385;SDS011;6257;57.634;18.310;2023-07-13T08:41:10;3.10;;;1.83;;
12385;SDS011;6257;57.634;18.310;2023-07-13T08:43:39;5.40;;;2.00;;
12385;SDS011;6257;57.634;18.310;2023-07-13T08:46:09;5.03;;;2.13;;
12385;SDS011;6257;57.634;18.310;2023-07-13T08:48:42;6.23;;;1.90;;
12385;SDS011;6257;57.634;18.310;2023-07-13T08:51:18;3.67;;;1.80;;
12385;SDS011;6257;57.634;18.310;2023-07-13T08:53:59;3.50;;;1.70;;
12385;SDS011;6257;57.634;18.310;2023-07-13T08:56:29;3.07;;;1.63;;
12385;SDS011;6257;57.634;18.310;2023-07-13T08:58:58;4.23;;;1.80;;
12385;SDS011;6257;57.634;18.310;2023-07-13T09:01:31;5.63;;;1.83;;
12385;SDS011;6257;57.634;18.310;2023-07-13T09:04:08;5.23;;;2.10;;
12385;SDS011;6257;57.634;18.310;2023-07-13T09:06:43;4.10;;;1.90;;
12385;SDS011;6257;57.634;18.310;2023-07-13T09:09:34;6.70;;;2.00;;
12385;SDS011;6257;57.634;18.310;2023-07-13T09:12:09;4.07;;;1.80;;
12385;SDS011;6257;57.634;18.310;2023-07-13T09:14:42;4.03;;;1.90;;
12385;SDS011;6257;57.634;18.310;2023-07-13T09:17:15;3.40;;;2.07;;
12385;SDS011;6257;57.634;18.310;2023-07-13T09:19:49;4.90;;;2.00;;
12385;SDS011;6257;57.634;18.310;2023-07-13T09:22:29;4.40;;;2.30;;
12385;SDS011;6257;57.634;18.310;2023-07-13T09:25:05;7.30;;;2.30;;
12385;SDS011;6257;57.634;18.310;2023-07-13T09:27:44;3.13;;;2.00;;
12385;SDS011;6257;57.634;18.310;2023-07-13T09:30:24;4.90;;;1.90;;
12385;SDS011;6257;57.634;18.310;2023-07-13T09:32:57;4.37;;;2.07;;
12385;SDS011;6257;57.634;18.310;2023-07-13T09:35:25;6.13;;;2.17;;
12385;SDS011;6257;57.634;18.310;2023-07-13T09:37:59;4.20;;;2.10;;
12385;SDS011;6257;57.634;18.310;2023-07-13T09:40:36;3.30;;;2.00;;
12385;SDS011;6257;57.634;18.310;2023-07-13T09:43:10;3.83;;;1.90;;
12385;SDS011;6257;57.634;18.310;2023-07-13T09:45:40;5.77;;;2.40;;
12385;SDS011;6257;57.634;18.310;2023-07-13T09:48:10;5.90;;;2.10;;
12385;SDS011;6257;57.634;18.310;2023-07-13T09:50:39;5.83;;;2.43;;
12385;SDS011;6257;57.634;18.310;2023-07-13T09:53:11;4.27;;;2.50;;
12385;SDS011;6257;57.634;18.310;2023-07-13T09:55:40;5.47;;;1.83;;
12385;SDS011;6257;57.634;18.310;2023-07-13T09:58:10;3.80;;;2.37;;
12385;SDS011;6257;57.634;18.310;2023-07-13T10:00:39;6.13;;;2.20;;
12385;SDS011;6257;57.634;18.310;2023-07-13T10:03:18;2.73;;;2.10;;
12385;SDS011;6257;57.634;18.310;2023-07-13T10:05:48;8.60;;;2.30;;
12385;SDS011;6257;57.634;18.310;2023-07-13T10:08:17;6.00;;;2.20;;
12385;SDS011;6257;57.634;18.310;2023-07-13T10:10:48;6.87;;;2.17;;
12385;SDS011;6257;57.634;18.310;2023-07-13T10:13:27;3.93;;;2.03;;
12385;SDS011;6257;57.634;18.310;2023-07-13T10:15:57;4.23;;;2.10;;
12385;SDS011;6257;57.634;18.310;2023-07-13T10:18:25;6.53;;;2.30;;
12385;SDS011;6257;57.634;18.310;2023-07-13T10:20:58;6.63;;;2.40;;
12385;SDS011;6257;57.634;18.310;2023-07-13T10:23:35;5.07;;;2.30;;
12385;SDS011;6257;57.634;18.310;2023-07-13T10:26:06;5.43;;;2.10;;
12385;SDS011;6257;57.634;18.310;2023-07-13T10:28:40;4.37;;;2.30;;
12385;SDS011;6257;57.634;18.310;2023-07-13T10:31:13;6.20;;;2.30;;
12385;SDS011;6257;57.634;18.310;2023-07-13T10:33:41;4.70;;;2.30;;
12385;SDS011;6257;57.634;18.310;2023-07-13T10:36:13;5.27;;;2.20;;
12385;SDS011;6257;57.634;18.310;2023-07-13T10:38:44;3.80;;;1.97;;
12385;SDS011;6257;57.634;18.310;2023-07-13T10:41:17;5.23;;;1.93;;
12385;SDS011;6257;57.634;18.310;2023-07-13T10:43:47;4.47;;;2.43;;
12385;SDS011;6257;57.634;18.310;2023-07-13T10:46:18;5.87;;;2.27;;
12385;SDS011;6257;57.634;18.310;2023-07-13T10:48:49;3.17;;;1.80;;
12385;SDS011;6257;57.634;18.310;2023-07-13T10:51:20;3.37;;;2.00;;
12385;SDS011;6257;57.634;18.310;2023-07-13T10:54:10;4.53;;;2.00;;
12385;SDS011;6257;57.634;18.310;2023-07-13T10:56:39;4.87;;;2.33;;
12385;SDS011;6257;57.634;18.310;2023-07-13T10:59:11;5.80;;;2.27;;
12385;SDS011;6257;57.634;18.310;2023-07-13T11:01:46;4.13;;;1.90;;
12385;SDS011;6257;57.634;18.310;2023-07-13T11:04:19;4.67;;;1.70;;
12385;SDS011;6257;57.634;18.310;2023-07-13T11:06:48;3.77;;;1.90;;
12385;SDS011;6257;57.634;18.310;2023-07-13T11:09:24;4.17;;;1.80;;
12385;SDS011;6257;57.634;18.310;2023-07-13T11:12:06;3.30;;;1.90;;
12385;SDS011;6257;57.634;18.310;2023-07-13T11:14:42;3.87;;;1.73;;
12385;SDS011;6257;57.634;18.310;2023-07-13T11:20:30;3.07;;;1.87;;
12385;SDS011;6257;57.634;18.310;2023-07-13T11:29:09;4.17;;;1.77;;
12385;SDS011;6257;57.634;18.310;2023-07-13T11:31:51;3.33;;;1.70;;
12385;SDS011;6257;57.634;18.310;2023-07-13T11:34:21;2.40;;;1.77;;
12385;SDS011;6257;57.634;18.310;2023-07-13T11:37:02;3.73;;;1.70;;
12385;SDS011;6257;57.634;18.310;2023-07-13T11:39:30;4.10;;;1.77;;
12385;SDS011;6257;57.634;18.310;2023-07-13T11:41:59;3.07;;;1.43;;
12385;SDS011;6257;57.634;18.310;2023-07-13T11:44:30;2.47;;;1.47;;
12385;SDS011;6257;57.634;18.310;2023-07-13T11:46:59;3.50;;;1.57;;
12385;SDS011;6257;57.634;18.310;2023-07-13T11:49:42;6.47;;;1.60;;
12385;SDS011;6257;57.634;18.310;2023-07-13T11:52:12;5.80;;;1.50;;
12385;SDS011;6257;57.634;18.310;2023-07-13T11:54:43;2.70;;;1.47;;
12385;SDS011;6257;57.634;18.310;2023-07-13T11:57:20;3.23;;;1.47;;
12385;SDS011;6257;57.634;18.310;2023-07-13T11:59:53;3.13;;;1.50;;
12385;SDS011;6257;57.634;18.310;2023-07-13T12:02:24;2.83;;;1.30;;
12385;SDS011;6257;57.634;18.310;2023-07-13T12:04:55;7.17;;;1.57;;
12385;SDS011;6257;57.634;18.310;2023-07-13T12:07:32;3.87;;;1.60;;
12385;SDS011;6257;57.634;18.310;2023-07-13T12:10:02;3.80;;;1.37;;
12385;SDS011;6257;57.634;18.310;2023-07-13T12:12:48;4.93;;;1.40;;
12385;SDS011;6257;57.634;18.310;2023-07-13T12:15:20;3.33;;;1.57;;
12385;SDS011;6257;57.634;18.310;2023-07-13T12:17:48;4.10;;;1.60;;
12385;SDS011;6257;57.634;18.310;2023-07-13T12:20:20;3.03;;;1.43;;
12385;SDS011;6257;57.634;18.310;2023-07-13T12:22:52;3.63;;;1.50;;
12385;SDS011;6257;57.634;18.310;2023-07-13T12:25:28;4.13;;;1.57;;
12385;SDS011;6257;57.634;18.310;2023-07-13T12:27:56;6.93;;;1.63;;
12385;SDS011;6257;57.634;18.310;2023-07-13T12:30:26;5.20;;;1.80;;
12385;SDS011;6257;57.634;18.310;2023-07-13T12:32:56;2.60;;;1.30;;
12385;SDS011;6257;57.634;18.310;2023-07-13T12:35:25;4.83;;;1.63;;
12385;SDS011;6257;57.634;18.310;2023-07-13T12:37:55;4.33;;;1.27;;
12385;SDS011;6257;57.634;18.310;2023-07-13T12:40:27;2.27;;;1.27;;
12385;SDS011;6257;57.634;18.310;2023-07-13T12:42:59;4.17;;;1.30;;
12385;SDS011;6257;57.634;18.310;2023-07-13T12:45:30;5.77;;;1.40;;
12385;SDS011;6257;57.634;18.310;2023-07-13T12:47:58;3.00;;;1.47;;
12385;SDS011;6257;57.634;18.310;2023-07-13T12:50:36;3.07;;;1.40;;
12385;SDS011;6257;57.634;18.310;2023-07-13T12:53:09;3.77;;;1.27;;
12385;SDS011;6257;57.634;18.310;2023-07-13T12:55:40;2.20;;;1.20;;
12385;SDS011;6257;57.634;18.310;2023-07-13T12:58:09;2.87;;;1.50;;
12385;SDS011;6257;57.634;18.310;2023-07-13T13:00:47;1.57;;;1.20;;
12385;SDS011;6257;57.634;18.310;2023-07-13T13:03:20;2.70;;;1.40;;
12385;SDS011;6257;57.634;18.310;2023-07-13T13:06:03;4.20;;;1.50;;
12385;SDS011;6257;57.634;18.310;2023-07-13T13:08:32;4.37;;;1.50;;
12385;SDS011;6257;57.634;18.310;2023-07-13T13:11:09;3.23;;;1.10;;
12385;SDS011;6257;57.634;18.310;2023-07-13T13:13:58;4.17;;;1.40;;
12385;SDS011;6257;57.634;18.310;2023-07-13T13:16:44;3.77;;;1.87;;
12385;SDS011;6257;57.634;18.310;2023-07-13T13:19:15;3.70;;;1.20;;
12385;SDS011;6257;57.634;18.310;2023-07-13T13:21:43;3.10;;;1.10;;
12385;SDS011;6257;57.634;18.310;2023-07-13T13:24:18;4.27;;;1.60;;
12385;SDS011;6257;57.634;18.310;2023-07-13T13:26:47;2.20;;;1.33;;
12385;SDS011;6257;57.634;18.310;2023-07-13T13:29:22;3.63;;;1.40;;
12385;SDS011;6257;57.634;18.310;2023-07-13T13:31:52;5.47;;;1.80;;
12385;SDS011;6257;57.634;18.310;2023-07-13T13:34:19;4.23;;;1.57;;
12385;SDS011;6257;57.634;18.310;2023-07-13T13:36:49;3.50;;;1.40;;
12385;SDS011;6257;57.634;18.310;2023-07-13T13:39:19;2.63;;;1.20;;
12385;SDS011;6257;57.634;18.310;2023-07-13T13:41:48;2.80;;;1.30;;
12385;SDS011;6257;57.634;18.310;2023-07-13T13:44:16;2.37;;;1.00;;
12385;SDS011;6257;57.634;18.310;2023-07-13T13:46:44;5.80;;;1.20;;
12385;SDS011;6257;57.634;18.310;2023-07-13T13:49:16;2.77;;;1.20;;
12385;SDS011;6257;57.634;18.310;2023-07-13T13:51:46;2.27;;;1.17;;
12385;SDS011;6257;57.634;18.310;2023-07-13T13:54:14;2.03;;;1.10;;
12385;SDS011;6257;57.634;18.310;2023-07-13T13:56:42;5.67;;;1.37;;
12385;SDS011;6257;57.634;18.310;2023-07-13T13:59:10;4.00;;;1.20;;
12385;SDS011;6257;57.634;18.310;2023-07-13T14:01:37;1.40;;;0.93;;
12385;SDS011;6257;57.634;18.310;2023-07-13T14:04:05;3.10;;;1.20;;
12385;SDS011;6257;57.634;18.310;2023-07-13T14:06:35;3.10;;;1.27;;
12385;SDS011;6257;57.634;18.310;2023-07-13T14:09:02;1.70;;;0.83;;
12385;SDS011;6257;57.634;18.310;2023-07-13T14:11:30;2.30;;;1.20;;
12385;SDS011;6257;57.634;18.310;2023-07-13T14:14:12;2.60;;;1.00;;
12385;SDS011;6257;57.634;18.310;2023-07-13T14:16:47;2.70;;;1.10;;
12385;SDS011;6257;57.634;18.310;2023-07-13T14:19:20;2.53;;;1.20;;
12385;SDS011;6257;57.634;18.310;2023-07-13T14:21:53;3.20;;;1.07;;
12385;SDS011;6257;57.634;18.310;2023-07-13T14:24:20;2.53;;;1.20;;
12385;SDS011;6257;57.634;18.310;2023-07-13T14:26:49;5.80;;;1.20;;
12385;SDS011;6257;57.634;18.310;2023-07-13T14:32:01;3.47;;;1.37;;
12385;SDS011;6257;57.634;18.310;2023-07-13T14:34:30;3.30;;;1.30;;
12385;SDS011;6257;57.634;18.310;2023-07-13T14:36:58;4.40;;;1.23;;
12385;SDS011;6257;57.634;18.310;2023-07-13T14:39:25;4.97;;;1.47;;
12385;SDS011;6257;57.634;18.310;2023-07-13T14:41:53;3.43;;;1.10;;
12385;SDS011;6257;57.634;18.310;2023-07-13T14:51:31;2.47;;;1.20;;
12385;SDS011;6257;57.634;18.310;2023-07-13T15:03:49;4.63;;;1.50;;
12385;SDS011;6257;57.634;18.310;2023-07-13T15:06:18;3.87;;;1.57;;
12385;SDS011;6257;57.634;18.310;2023-07-13T15:08:48;4.17;;;1.40;;
12385;SDS011;6257;57.634;18.310;2023-07-13T15:11:15;3.13;;;1.30;;
12385;SDS011;6257;57.634;18.310;2023-07-13T15:13:43;2.97;;;1.23;;
12385;SDS011;6257;57.634;18.310;2023-07-13T15:16:14;8.97;;;1.50;;
12385;SDS011;6257;57.634;18.310;2023-07-13T15:18:51;5.97;;;1.43;;
12385;SDS011;6257;57.634;18.310;2023-07-13T15:21:31;3.13;;;1.33;;
12385;SDS011;6257;57.634;18.310;2023-07-13T15:23:59;3.63;;;1.60;;
12385;SDS011;6257;57.634;18.310;2023-07-13T15:26:27;5.10;;;1.50;;
12385;SDS011;6257;57.634;18.310;2023-07-13T15:28:57;3.80;;;1.40;;
12385;SDS011;6257;57.634;18.310;2023-07-13T15:31:25;4.43;;;1.50;;
12385;SDS011;6257;57.634;18.310;2023-07-13T15:33:55;5.33;;;1.63;;
12385;SDS011;6257;57.634;18.310;2023-07-13T15:36:24;5.20;;;1.77;;
12385;SDS011;6257;57.634;18.310;2023-07-13T15:38:52;5.00;;;1.90;;
12385;SDS011;6257;57.634;18.310;2023-07-13T15:41:21;4.50;;;1.37;;
12385;SDS011;6257;57.634;18.310;2023-07-13T15:43:50;6.23;;;2.20;;
12385;SDS011;6257;57.634;18.310;2023-07-13T15:46:19;4.57;;;1.80;;
12385;SDS011;6257;57.634;18.310;2023-07-13T15:48:47;6.90;;;1.83;;
12385;SDS011;6257;57.634;18.310;2023-07-13T15:51:17;2.57;;;1.40;;
12385;SDS011;6257;57.634;18.310;2023-07-13T15:53:46;3.17;;;1.67;;
12385;SDS011;6257;57.634;18.310;2023-07-13T15:56:19;5.70;;;1.70;;
12385;SDS011;6257;57.634;18.310;2023-07-13T15:58:48;2.93;;;1.50;;
12385;SDS011;6257;57.634;18.310;2023-07-13T16:01:16;5.67;;;1.60;;
12385;SDS011;6257;57.634;18.310;2023-07-13T16:03:44;6.70;;;1.60;;
12385;SDS011;6257;57.634;18.310;2023-07-13T16:06:17;4.20;;;1.50;;
12385;SDS011;6257;57.634;18.310;2023-07-13T16:08:47;2.83;;;1.40;;
12385;SDS011;6257;57.634;18.310;2023-07-13T16:11:17;3.67;;;1.70;;
12385;SDS011;6257;57.634;18.310;2023-07-13T16:13:49;4.90;;;1.83;;